Time;durP1;ratioP1;P1;durP2;ratioP2;P2;SDS_P1;SDS_P2;PMS_P1;PMS_P2;Temp;Humidity;BMP_temperature;BMP_pressure;BME280_temperature;BME280_humidity;BME280_pressure;Samples;Min_cycle;Max_cycle;Signal;HPM_P1;HPM_P2
2023/08/13 00:00:21;;;;;;;6.67;6.00;;;15.70;99.90;;;;;;4978048;28;20505;-58
2023/08/13 00:02:48;;;;;;;6.87;5.80;;;15.70;99.90;;;;;;4978368;28;20833;-59
2023/08/13 00:05:16;;;;;;;5.90;5.30;;;15.70;99.90;;;;;;4977581;28;20497;-58
2023/08/13 00:07:43;;;;;;;7.00;6.30;;;15.70;99.90;;;;;;4977095;28;20982;-58
2023/08/13 00:10:11;;;;;;;15.10;6.50;;;15.60;99.90;;;;;;4978263;28;20556;-59
2023/08/13 00:12:38;;;;;;;9.20;5.93;;;15.60;99.90;;;;;;4977919;28;20564;-59
2023/08/13 00:15:08;;;;;;;5.93;5.33;;;15.50;99.90;;;;;;4978188;28;20462;-59
2023/08/13 00:17:36;;;;;;;6.27;5.67;;;15.50;99.90;;;;;;4970360;28;20788;-58
2023/08/13 00:20:04;;;;;;;8.67;5.60;;;15.50;99.90;;;;;;4963200;28;20468;-59
2023/08/13 00:22:31;;;;;;;6.43;5.83;;;15.50;99.90;;;;;;4968534;28;20782;-59
2023/08/13 00:24:58;;;;;;;9.37;6.03;;;15.50;99.90;;;;;;4961197;28;20464;-59
2023/08/13 00:27:26;;;;;;;6.40;5.60;;;15.60;99.90;;;;;;4976671;28;20533;-58
2023/08/13 00:29:53;;;;;;;8.23;5.27;;;15.60;99.90;;;;;;4977843;28;20492;-59
2023/08/13 00:32:22;;;;;;;6.20;5.20;;;15.60;99.90;;;;;;4977566;28;20645;-59
2023/08/13 00:34:49;;;;;;;7.70;5.00;;;15.60;99.90;;;;;;4977677;28;20532;-59
2023/08/13 00:37:16;;;;;;;8.77;5.23;;;15.60;99.90;;;;;;4977461;28;20943;-60
2023/08/13 00:39:44;;;;;;;6.50;5.47;;;15.60;99.90;;;;;;4961707;28;20479;-59
2023/08/13 00:42:11;;;;;;;6.40;5.43;;;15.50;99.90;;;;;;4977507;28;20476;-59
2023/08/13 00:44:38;;;;;;;10.20;5.70;;;15.50;99.90;;;;;;4977648;28;20493;-59
2023/08/13 00:47:06;;;;;;;12.43;5.67;;;15.50;99.90;;;;;;4977712;28;20588;-58
2023/08/13 00:49:35;;;;;;;6.10;5.33;;;15.40;99.90;;;;;;4976302;28;20572;-58
2023/08/13 00:52:02;;;;;;;6.73;5.43;;;15.50;99.90;;;;;;4977235;28;20573;-58
2023/08/13 00:54:31;;;;;;;7.00;6.30;;;15.50;99.90;;;;;;4977085;28;20556;-59
2023/08/13 00:56:59;;;;;;;7.27;5.80;;;15.60;99.90;;;;;;4977263;28;20464;-59
2023/08/13 00:59:27;;;;;;;8.43;4.97;;;15.60;99.90;;;;;;4971626;28;20473;-59
2023/08/13 01:01:55;;;;;;;11.53;5.73;;;15.60;99.90;;;;;;4957366;29;20972;-58
2023/08/13 01:04:22;;;;;;;6.40;5.37;;;15.70;99.90;;;;;;4958213;28;20493;-58
2023/08/13 01:06:59;;;;;;;8.70;5.00;;;15.70;99.90;;;;;;4957945;29;20502;-58
2023/08/13 01:09:38;;;;;;;8.47;5.47;;;15.70;99.90;;;;;;4957840;28;20467;-58
2023/08/13 01:12:15;;;;;;;6.90;5.20;;;15.70;99.90;;;;;;4976501;28;20581;-58
2023/08/13 01:14:48;;;;;;;5.90;5.30;;;15.70;99.90;;;;;;4977371;28;20532;-58
2023/08/13 01:17:18;;;;;;;5.97;4.77;;;15.70;99.90;;;;;;4977227;28;20462;-59
2023/08/13 01:19:45;;;;;;;6.80;4.90;;;15.80;99.90;;;;;;4976951;28;20484;-58
2023/08/13 01:22:14;;;;;;;7.00;5.30;;;15.80;99.90;;;;;;4957821;28;20485;-59
2023/08/13 01:24:42;;;;;;;5.37;4.83;;;15.70;99.90;;;;;;4958046;28;20463;-59
2023/08/13 01:27:16;;;;;;;8.13;4.97;;;15.70;99.90;;;;;;4957875;29;20538;-59
2023/08/13 01:29:49;;;;;;;7.10;4.63;;;15.70;99.90;;;;;;4958163;29;20557;-59
2023/08/13 01:32:21;;;;;;;7.20;4.60;;;15.70;99.90;;;;;;4972877;28;20484;-59
2023/08/13 01:34:51;;;;;;;8.50;5.00;;;15.60;99.90;;;;;;4957998;29;20466;-59
2023/08/13 01:37:20;;;;;;;7.50;4.70;;;15.60;99.90;;;;;;4957597;29;20901;-60
2023/08/13 01:39:49;;;;;;;4.70;4.20;;;15.60;99.90;;;;;;4957904;29;20498;-59
2023/08/13 01:42:16;;;;;;;6.63;4.47;;;15.60;99.90;;;;;;4956719;28;20558;-59
2023/08/13 01:44:43;;;;;;;5.00;4.50;;;15.60;99.90;;;;;;4958727;29;20569;-59
2023/08/13 01:47:10;;;;;;;6.67;5.37;;;15.60;99.90;;;;;;4957748;29;20812;-59
2023/08/13 01:49:38;;;;;;;7.07;4.70;;;15.60;99.90;;;;;;4957859;29;20987;-59
2023/08/13 01:52:05;;;;;;;10.93;4.90;;;15.70;99.90;;;;;;4962100;28;20493;-59
2023/08/13 01:54:33;;;;;;;6.83;4.83;;;15.70;99.90;;;;;;4976804;28;20954;-58
2023/08/13 01:57:02;;;;;;;7.13;4.90;;;15.70;99.90;;;;;;4967940;28;20549;-59
2023/08/13 01:59:29;;;;;;;9.27;5.07;;;15.70;99.90;;;;;;4960859;29;20470;-59
2023/08/13 02:01:56;;;;;;;7.60;5.43;;;15.60;99.90;;;;;;4961151;28;20462;-60
2023/08/13 02:04:24;;;;;;;9.10;5.67;;;15.60;99.90;;;;;;4980486;28;20519;-59
2023/08/13 02:06:51;;;;;;;5.80;5.10;;;15.60;99.90;;;;;;4980264;28;20548;-60
2023/08/13 02:09:18;;;;;;;6.13;5.27;;;15.60;99.90;;;;;;4979307;28;20480;-59
2023/08/13 02:11:45;;;;;;;6.40;5.00;;;15.50;99.90;;;;;;4980006;28;20462;-58
2023/08/13 02:14:14;;;;;;;7.57;6.00;;;15.40;99.90;;;;;;4963509;28;20561;-59
2023/08/13 02:16:41;;;;;;;8.20;5.30;;;15.40;99.90;;;;;;4961052;28;20487;-58
2023/08/13 02:19:08;;;;;;;9.13;5.67;;;15.40;99.90;;;;;;4960486;29;20549;-59
2023/08/13 02:21:36;;;;;;;5.77;5.17;;;15.40;99.90;;;;;;4960656;29;20489;-59
2023/08/13 02:24:03;;;;;;;7.20;5.60;;;15.30;99.90;;;;;;4970063;28;20913;-59
2023/08/13 02:26:30;;;;;;;5.23;4.57;;;15.30;99.90;;;;;;4979957;28;20551;-59
2023/08/13 02:28:57;;;;;;;7.10;4.40;;;15.30;99.90;;;;;;4979477;28;20565;-60
2023/08/13 02:31:26;;;;;;;6.50;4.80;;;15.30;99.90;;;;;;4980018;28;20443;-59
2023/08/13 02:33:53;;;;;;;8.43;5.20;;;15.30;99.90;;;;;;4977409;28;20827;-59
2023/08/13 02:36:20;;;;;;;12.40;5.50;;;15.20;99.90;;;;;;4979736;28;20498;-59
2023/08/13 02:38:47;;;;;;;7.83;5.37;;;15.20;99.90;;;;;;4980123;28;20761;-59
2023/08/13 02:41:15;;;;;;;6.40;4.60;;;15.20;99.90;;;;;;4979465;28;20746;-60
2023/08/13 02:43:51;;;;;;;9.43;4.97;;;15.10;99.90;;;;;;4979415;28;20521;-59
2023/08/13 02:46:18;;;;;;;5.30;4.80;;;15.10;99.90;;;;;;4961075;28;20580;-60
2023/08/13 02:48:47;;;;;;;8.70;5.53;;;15.00;99.90;;;;;;4960390;28;20467;-59
2023/08/13 02:51:14;;;;;;;5.70;5.03;;;15.00;99.90;;;;;;4960130;29;20561;-59
2023/08/13 02:53:42;;;;;;;7.20;5.33;;;15.00;99.90;;;;;;4959767;29;20483;-59
2023/08/13 02:56:09;;;;;;;6.27;4.90;;;15.00;99.90;;;;;;4972558;28;20505;-60
2023/08/13 02:58:37;;;;;;;8.93;5.40;;;14.90;99.90;;;;;;4963034;28;20905;-60
2023/08/13 03:01:04;;;;;;;6.30;4.93;;;15.00;99.90;;;;;;4960174;29;20473;-60
2023/08/13 03:03:31;;;;;;;7.07;5.27;;;14.90;99.90;;;;;;4958873;29;20562;-59
2023/08/13 03:06:00;;;;;;;7.10;4.80;;;14.90;99.90;;;;;;4959931;28;20538;-60
2023/08/13 03:08:27;;;;;;;8.43;5.27;;;14.90;99.90;;;;;;4968273;28;20560;-59
2023/08/13 03:10:55;;;;;;;7.80;5.80;;;14.90;99.90;;;;;;4977469;28;20895;-60
2023/08/13 03:13:22;;;;;;;10.83;5.17;;;14.80;99.90;;;;;;4978736;28;20746;-60
2023/08/13 03:15:49;;;;;;;7.20;4.80;;;14.80;99.90;;;;;;4978940;28;20472;-60
2023/08/13 03:18:16;;;;;;;9.43;5.43;;;14.80;99.90;;;;;;4973900;28;20912;-60
2023/08/13 03:20:43;;;;;;;14.73;5.03;;;14.90;99.90;;;;;;4959239;28;20905;-60
2023/08/13 03:23:12;;;;;;;7.63;5.13;;;14.90;99.90;;;;;;4959865;29;20485;-59
2023/08/13 03:25:39;;;;;;;7.33;4.70;;;14.80;99.90;;;;;;4958901;29;20466;-59
2023/08/13 03:28:06;;;;;;;7.17;5.20;;;14.80;99.90;;;;;;4959231;29;20455;-61
2023/08/13 03:30:33;;;;;;;11.97;5.07;;;14.70;99.90;;;;;;4959639;28;20470;-59
2023/08/13 03:33:00;;;;;;;6.30;4.60;;;14.70;99.90;;;;;;4959628;28;20514;-60
2023/08/13 03:35:28;;;;;;;8.60;5.87;;;14.60;99.90;;;;;;4959932;29;20555;-60
2023/08/13 03:37:55;;;;;;;5.13;4.63;;;14.60;99.90;;;;;;4960207;29;20899;-60
2023/08/13 03:40:23;;;;;;;5.83;4.93;;;14.60;99.90;;;;;;4973817;28;20466;-59
2023/08/13 03:42:51;;;;;;;7.07;4.80;;;14.50;99.90;;;;;;4979847;28;20464;-59
2023/08/13 03:45:18;;;;;;;9.50;4.67;;;14.50;99.90;;;;;;4978488;28;20537;-60
2023/08/13 03:47:45;;;;;;;8.63;5.20;;;14.50;99.90;;;;;;4979211;28;21010;-59
2023/08/13 03:50:12;;;;;;;8.93;4.70;;;14.40;99.90;;;;;;4970021;28;20813;-59
2023/08/13 03:52:39;;;;;;;9.23;5.00;;;14.40;99.90;;;;;;4959536;28;20495;-60
2023/08/13 03:55:07;;;;;;;6.13;4.20;;;14.50;99.90;;;;;;4959950;29;20769;-59
2023/08/13 03:57:36;;;;;;;6.10;4.50;;;14.40;99.90;;;;;;4959538;29;20469;-60
2023/08/13 04:00:04;;;;;;;9.20;5.10;;;14.40;99.90;;;;;;4962270;28;20558;-60
2023/08/13 04:02:33;;;;;;;7.47;5.43;;;14.30;99.90;;;;;;4977297;28;20533;-60
2023/08/13 04:05:01;;;;;;;5.60;5.00;;;14.30;99.90;;;;;;4979132;28;20824;-59
2023/08/13 04:07:28;;;;;;;7.03;4.90;;;14.20;99.90;;;;;;4978745;28;20504;-60
2023/08/13 04:09:55;;;;;;;7.90;5.43;;;14.30;99.90;;;;;;4978637;28;20557;-60
2023/08/13 04:12:22;;;;;;;6.93;5.20;;;14.30;99.90;;;;;;4977603;28;20466;-60
2023/08/13 04:14:51;;;;;;;7.90;5.60;;;14.30;99.90;;;;;;4978419;28;20946;-60
2023/08/13 04:17:18;;;;;;;9.13;5.10;;;14.30;99.90;;;;;;4978566;28;20875;-60
2023/08/13 04:19:45;;;;;;;5.50;4.93;;;14.30;99.90;;;;;;4978060;28;20468;-59
2023/08/13 04:22:13;;;;;;;6.50;4.60;;;14.30;99.90;;;;;;4976497;28;20493;-59
2023/08/13 04:24:40;;;;;;;10.90;5.53;;;14.20;99.90;;;;;;4978166;28;20783;-59
2023/08/13 04:27:07;;;;;;;5.30;4.80;;;14.20;99.90;;;;;;4978088;28;20494;-59
2023/08/13 04:29:34;;;;;;;7.30;5.93;;;14.20;99.90;;;;;;4978488;28;20564;-59
2023/08/13 04:32:03;;;;;;;7.50;4.97;;;14.20;99.90;;;;;;4970382;28;20987;-60
2023/08/13 04:34:30;;;;;;;6.27;5.30;;;14.20;99.90;;;;;;4966804;28;20979;-60
2023/08/13 04:36:58;;;;;;;9.80;5.47;;;14.20;99.90;;;;;;4959190;29;20465;-59
2023/08/13 04:39:25;;;;;;;7.20;4.80;;;14.20;99.90;;;;;;4958413;29;20501;-60
2023/08/13 04:41:54;;;;;;;6.03;5.40;;;14.20;99.90;;;;;;4959812;28;20466;-60
2023/08/13 04:44:21;;;;;;;9.87;4.87;;;14.20;99.90;;;;;;4978688;28;20465;-60
2023/08/13 04:46:48;;;;;;;7.23;5.23;;;14.20;99.90;;;;;;4978053;28;20532;-60
2023/08/13 04:49:17;;;;;;;10.73;4.87;;;14.20;99.90;;;;;;4978370;28;20462;-60
2023/08/13 04:51:44;;;;;;;7.13;4.27;;;14.20;99.90;;;;;;4977854;28;20461;-60
2023/08/13 04:54:11;;;;;;;7.27;5.00;;;14.20;99.90;;;;;;4961717;28;20558;-60
2023/08/13 04:56:38;;;;;;;9.67;5.20;;;14.30;99.90;;;;;;4959040;28;20530;-60
2023/08/13 04:59:06;;;;;;;8.40;5.30;;;14.30;99.90;;;;;;4960199;28;20441;-60
2023/08/13 05:01:33;;;;;;;8.60;4.97;;;14.30;99.90;;;;;;4977634;28;20463;-60
2023/08/13 05:04:00;;;;;;;8.90;5.90;;;14.40;99.90;;;;;;4978276;28;20516;-60
2023/08/13 05:06:29;;;;;;;11.43;5.70;;;14.50;99.90;;;;;;4978195;28;20437;-60
2023/08/13 05:08:56;;;;;;;7.67;5.67;;;14.60;99.90;;;;;;4978306;28;20548;-59
2023/08/13 05:11:23;;;;;;;7.60;4.97;;;14.60;99.90;;;;;;4962458;28;20471;-60
2023/08/13 05:13:50;;;;;;;7.53;5.10;;;14.70;99.90;;;;;;4958542;28;20502;-60
2023/08/13 05:16:17;;;;;;;6.73;4.13;;;14.80;99.90;;;;;;4959059;29;20566;-60
2023/08/13 05:18:45;;;;;;;6.37;4.73;;;14.80;99.90;;;;;;4959331;29;20463;-60
2023/08/13 05:21:12;;;;;;;7.23;5.00;;;14.90;99.90;;;;;;4967977;28;20468;-60
2023/08/13 05:23:40;;;;;;;5.33;4.03;;;14.90;99.90;;;;;;4977876;28;20465;-60
2023/08/13 05:26:08;;;;;;;5.57;4.60;;;14.90;99.90;;;;;;4977505;28;20478;-60
2023/08/13 05:28:35;;;;;;;6.27;4.50;;;15.00;99.90;;;;;;4977565;28;20502;-60
2023/08/13 05:31:03;;;;;;;8.53;4.93;;;15.00;99.90;;;;;;4973120;28;20448;-60
2023/08/13 05:33:30;;;;;;;12.50;5.00;;;15.20;99.90;;;;;;4962272;28;20466;-60
2023/08/13 05:35:58;;;;;;;8.43;6.30;;;15.20;99.90;;;;;;4962481;28;20908;-60
2023/08/13 05:38:25;;;;;;;8.37;5.27;;;15.30;99.90;;;;;;4964995;28;20549;-61
2023/08/13 05:40:53;;;;;;;8.60;5.33;;;15.30;99.90;;;;;;4981769;28;20462;-60
2023/08/13 05:43:20;;;;;;;11.30;4.87;;;15.40;99.90;;;;;;4981066;28;20465;-59
2023/08/13 05:45:48;;;;;;;7.30;5.50;;;15.50;99.90;;;;;;4981585;28;20469;-60
2023/08/13 05:48:15;;;;;;;8.03;4.90;;;15.60;99.90;;;;;;4981397;28;20533;-60
2023/08/13 05:50:42;;;;;;;7.53;5.17;;;15.70;99.90;;;;;;4963566;28;20477;-60
2023/08/13 05:53:09;;;;;;;8.43;5.37;;;15.70;99.90;;;;;;4961998;28;20580;-60
2023/08/13 05:55:37;;;;;;;13.33;5.10;;;15.80;99.90;;;;;;4961496;29;20470;-61
2023/08/13 05:58:06;;;;;;;6.40;5.50;;;15.80;99.90;;;;;;4960609;29;20900;-60
2023/08/13 06:00:33;;;;;;;17.80;15.03;;;15.90;99.90;;;;;;4973070;28;20484;-60
2023/08/13 06:03:00;;;;;;;17.63;14.20;;;15.90;99.90;;;;;;4980238;28;20466;-60
2023/08/13 06:05:28;;;;;;;14.13;12.63;;;16.00;99.90;;;;;;4980922;28;20521;-60
2023/08/13 06:07:55;;;;;;;16.00;14.40;;;16.00;99.90;;;;;;4980898;28;20500;-60
2023/08/13 06:10:22;;;;;;;15.30;13.33;;;16.00;99.90;;;;;;4973938;28;20912;-60
2023/08/13 06:12:49;;;;;;;13.93;12.60;;;16.10;99.90;;;;;;4962089;28;20463;-61
2023/08/13 06:15:18;;;;;;;14.50;12.60;;;16.20;99.90;;;;;;4961638;28;20491;-60
2023/08/13 06:17:46;;;;;;;15.00;11.13;;;16.30;99.90;;;;;;4961466;28;20459;-60
2023/08/13 06:20:14;;;;;;;12.13;10.80;;;16.40;99.90;;;;;;4962521;28;20493;-60
2023/08/13 06:22:42;;;;;;;12.23;9.60;;;16.40;99.90;;;;;;4981020;28;20469;-60
2023/08/13 06:25:10;;;;;;;10.83;5.60;;;16.50;99.90;;;;;;4980859;28;20489;-60
2023/08/13 06:27:37;;;;;;;7.77;5.40;;;16.60;99.90;;;;;;4980651;28;20537;-60
2023/08/13 06:30:05;;;;;;;10.90;5.10;;;16.60;99.90;;;;;;4980728;28;20849;-60
2023/08/13 06:32:33;;;;;;;6.73;4.97;;;16.70;99.90;;;;;;4964160;28;20467;-62
2023/08/13 06:35:00;;;;;;;8.40;5.10;;;16.80;99.90;;;;;;4980812;28;20497;-61
2023/08/13 06:37:28;;;;;;;8.73;4.80;;;16.80;99.90;;;;;;4980286;28;20458;-60
2023/08/13 06:39:55;;;;;;;8.63;4.67;;;16.90;35.30;;;;;;4980609;28;20490;-60
2023/08/13 06:42:23;;;;;;;8.90;5.10;;;17.00;1.00;;;;;;4972294;28;20556;-60
2023/08/13 06:44:50;;;;;;;4.40;4.00;;;17.00;22.10;;;;;;4959932;28;20471;-61
2023/08/13 06:47:17;;;;;;;8.83;4.80;;;17.10;1.00;;;;;;4960609;29;20565;-59
2023/08/13 06:49:46;;;;;;;5.80;4.20;;;17.20;99.90;;;;;;4960712;29;20549;-60
2023/08/13 06:52:13;;;;;;;10.30;5.20;;;17.40;1.00;;;;;;4965374;28;20489;-60
2023/08/13 06:54:40;;;;;;;7.80;4.87;;;17.50;1.00;;;;;;4980484;28;20892;-60
2023/08/13 06:57:07;;;;;;;6.03;5.27;;;17.50;1.00;;;;;;4979618;28;20466;-60
2023/08/13 06:59:35;;;;;;;7.33;5.37;;;17.70;1.00;;;;;;4977743;28;20563;-60
2023/08/13 07:02:04;;;;;;;7.67;6.50;;;17.80;1.00;;;;;;4972068;28;20544;-61
2023/08/13 07:04:31;;;;;;;9.97;5.83;;;17.90;1.00;;;;;;4958548;29;20529;-60
2023/08/13 07:07:00;;;;;;;10.17;5.70;;;17.90;1.00;;;;;;4959467;28;20473;-61
2023/08/13 07:09:27;;;;;;;8.00;6.33;;;18.00;99.90;;;;;;4959345;29;20497;-60
2023/08/13 07:11:55;;;;;;;7.30;5.10;;;18.20;1.00;;;;;;4959350;29;20769;-60
2023/08/13 07:14:22;;;;;;;7.63;5.67;;;18.30;99.90;;;;;;4959400;29;20908;-60
2023/08/13 07:16:50;;;;;;;9.03;6.67;;;18.30;99.90;;;;;;4960675;29;20859;-60
2023/08/13 07:19:17;;;;;;;9.93;5.13;;;18.40;99.90;;;;;;4969328;28;20888;-62
2023/08/13 07:21:44;;;;;;;7.17;5.10;;;18.50;99.90;;;;;;4966695;28;20553;-62
2023/08/13 07:24:13;;;;;;;9.47;6.00;;;18.50;99.90;;;;;;4965951;28;20497;-62
2023/08/13 07:26:40;;;;;;;7.07;5.03;;;18.60;99.90;;;;;;4964048;28;20481;-62
2023/08/13 07:29:07;;;;;;;5.93;5.00;;;18.80;99.90;;;;;;4964288;28;20589;-62
2023/08/13 07:31:35;;;;;;;9.23;4.37;;;18.80;53.20;;;;;;4964884;28;20772;-62
2023/08/13 07:34:02;;;;;;;10.73;5.50;;;19.00;1.00;;;;;;4963695;28;20473;-62
2023/08/13 07:36:30;;;;;;;7.10;4.80;;;19.20;1.00;;;;;;4956739;29;20462;-62
2023/08/13 07:38:57;;;;;;;7.27;4.67;;;19.30;1.00;;;;;;4958185;28;20754;-62
2023/08/13 07:41:26;;;;;;;8.10;5.43;;;19.40;99.90;;;;;;4962943;28;20450;-62
2023/08/13 07:43:54;;;;;;;7.03;4.43;;;19.50;99.90;;;;;;4968836;28;20494;-62
2023/08/13 07:46:22;;;;;;;7.67;4.67;;;19.50;28.90;;;;;;4966862;28;20489;-62
2023/08/13 07:48:49;;;;;;;8.47;4.27;;;19.60;40.80;;;;;;4967382;28;20490;-62
2023/08/13 07:51:16;;;;;;;5.40;4.40;;;19.70;99.90;;;;;;4962969;28;20482;-62
2023/08/13 07:53:43;;;;;;;6.90;4.50;;;19.90;73.70;;;;;;4957099;28;20554;-62
2023/08/13 07:56:10;;;;;;;9.23;4.30;;;20.00;1.00;;;;;;4969534;28;20525;-62
2023/08/13 07:58:39;;;;;;;7.80;4.30;;;20.20;1.00;;;;;;4978327;28;20815;-62
2023/08/13 08:01:07;;;;;;;7.40;3.80;;;20.40;1.00;;;;;;4979131;28;20469;-62
2023/08/13 08:03:35;;;;;;;7.30;4.40;;;20.60;99.90;;;;;;4978958;28;20465;-62
2023/08/13 08:06:02;;;;;;;8.80;4.10;;;20.90;99.90;;;;;;4970934;28;20550;-62
2023/08/13 08:08:29;;;;;;;5.27;3.50;;;21.10;99.90;;;;;;4959944;28;20530;-62
2023/08/13 08:10:57;;;;;;;7.97;4.10;;;21.20;99.90;;;;;;4965866;28;20509;-62
2023/08/13 08:13:24;;;;;;;5.17;3.20;;;21.50;99.90;;;;;;4978709;28;20963;-62
2023/08/13 08:15:53;;;;;;;7.37;3.40;;;21.60;99.90;;;;;;4959866;28;20514;-62
2023/08/13 08:18:20;;;;;;;7.53;3.80;;;21.70;99.90;;;;;;4974470;28;20469;-62
2023/08/13 08:20:47;;;;;;;5.97;3.70;;;21.90;99.90;;;;;;4978137;28;20489;-62
2023/08/13 08:23:14;;;;;;;5.00;3.67;;;21.90;79.90;;;;;;4977743;28;20986;-62
2023/08/13 08:25:42;;;;;;;5.13;2.90;;;22.00;65.90;;;;;;4977670;28;20468;-62
2023/08/13 08:28:09;;;;;;;6.43;3.17;;;22.20;1.00;;;;;;4961143;28;20526;-62
2023/08/13 08:30:36;;;;;;;6.27;3.37;;;22.40;1.00;;;;;;4965835;28;20553;-62
2023/08/13 08:33:06;;;;;;;6.97;2.70;;;22.60;1.00;;;;;;4958033;28;20470;-62
2023/08/13 08:35:33;;;;;;;6.43;3.10;;;22.80;1.00;;;;;;4958990;28;20927;-62
2023/08/13 08:38:01;;;;;;;4.83;2.90;;;22.90;1.00;;;;;;4969423;28;20465;-62
2023/08/13 08:40:28;;;;;;;5.83;3.23;;;22.80;1.00;;;;;;4977890;28;20493;-62
2023/08/13 08:42:56;;;;;;;6.70;3.27;;;23.00;1.00;;;;;;4977961;28;20476;-62
2023/08/13 08:45:24;;;;;;;7.73;3.00;;;22.90;1.00;;;;;;4978737;28;20462;-62
2023/08/13 08:47:53;;;;;;;5.30;3.13;;;23.10;1.00;;;;;;4971848;28;20494;-62
2023/08/13 08:50:22;;;;;;;7.13;3.17;;;23.20;1.00;;;;;;4958857;28;20908;-62
2023/08/13 08:52:50;;;;;;;5.17;2.80;;;23.30;1.00;;;;;;4958445;28;20490;-62
2023/08/13 08:55:18;;;;;;;5.00;3.13;;;23.60;1.00;;;;;;4959561;28;20455;-62
2023/08/13 08:57:45;;;;;;;3.90;2.20;;;23.90;1.00;;;;;;4966298;28;20462;-62
2023/08/13 09:00:13;;;;;;;4.80;2.57;;;23.90;1.00;;;;;;4976596;28;20466;-62
2023/08/13 09:02:43;;;;;;;6.97;2.70;;;24.10;99.90;;;;;;4970610;28;20557;-62
2023/08/13 09:05:10;;;;;;;3.33;2.33;;;23.90;99.90;;;;;;4963061;28;20589;-62
2023/08/13 09:07:42;;;;;;;4.63;2.90;;;23.90;20.80;;;;;;4965439;28;20500;-62
2023/08/13 09:10:10;;;;;;;5.53;2.73;;;23.80;99.90;;;;;;4965642;28;20470;-62
2023/08/13 09:12:39;;;;;;;5.00;2.60;;;24.10;99.90;;;;;;4975566;28;20458;-62
2023/08/13 09:15:08;;;;;;;5.20;2.83;;;24.30;99.90;;;;;;4960671;28;20528;-62
2023/08/13 09:17:35;;;;;;;6.40;2.73;;;24.60;99.90;;;;;;4960534;28;20471;-63
2023/08/13 09:20:10;;;;;;;4.83;2.70;;;24.90;99.90;;;;;;4971411;28;20556;-62
2023/08/13 09:22:40;;;;;;;4.80;2.63;;;25.00;99.90;;;;;;4980373;28;20474;-62
2023/08/13 09:25:10;;;;;;;4.20;3.17;;;25.20;99.90;;;;;;4981355;28;20476;-62
2023/08/13 09:27:38;;;;;;;6.00;3.10;;;25.50;99.90;;;;;;4981566;28;20469;-62
2023/08/13 09:30:10;;;;;;;4.60;3.10;;;25.50;1.00;;;;;;4974840;28;20463;-63
2023/08/13 09:32:37;;;;;;;3.90;2.30;;;25.50;99.90;;;;;;4970372;28;20463;-63
2023/08/13 09:35:05;;;;;;;5.10;3.13;;;25.40;44.60;;;;;;4969376;28;20509;-63
2023/08/13 09:37:33;;;;;;;5.20;2.93;;;25.30;99.90;;;;;;4971220;28;20463;-62
2023/08/13 09:40:02;;;;;;;4.13;2.80;;;25.30;99.90;;;;;;4969528;28;20520;-63
2023/08/13 09:42:33;;;;;;;4.20;3.20;;;25.50;99.90;;;;;;4971617;28;20891;-63
2023/08/13 09:45:02;;;;;;;5.20;3.30;;;25.50;99.90;;;;;;4971295;28;20451;-63
2023/08/13 09:47:31;;;;;;;3.20;2.10;;;25.50;1.00;;;;;;4969856;28;20458;-63
2023/08/13 09:50:00;;;;;;;4.20;2.73;;;25.40;1.00;;;;;;4965105;28;20545;-63
2023/08/13 09:52:30;;;;;;;7.33;2.97;;;25.40;1.00;;;;;;4966136;28;20588;-63
2023/08/13 09:55:08;;;;;;;4.00;3.13;;;25.80;99.90;;;;;;4968377;28;20473;-63
2023/08/13 09:57:38;;;;;;;3.63;2.87;;;25.90;1.00;;;;;;4972614;28;20454;-63
2023/08/13 10:00:07;;;;;;;7.90;3.30;;;26.00;1.00;;;;;;4972285;28;20943;-59
2023/08/13 10:02:35;;;;;;;5.37;3.37;;;26.10;99.90;;;;;;4967219;28;20514;-60
2023/08/13 10:05:04;;;;;;;5.33;3.00;;;26.20;92.70;;;;;;4969895;28;20535;-60
2023/08/13 10:07:34;;;;;;;4.90;3.03;;;26.00;99.90;;;;;;4967693;28;20552;-60
2023/08/13 10:10:03;;;;;;;3.20;2.80;;;26.20;72.80;;;;;;4970563;28;20940;-59
2023/08/13 10:12:33;;;;;;;4.03;2.60;;;26.40;80.10;;;;;;4967811;28;20903;-59
2023/08/13 10:15:01;;;;;;;5.37;3.07;;;26.70;1.00;;;;;;4970233;28;20469;-58
2023/08/13 10:17:29;;;;;;;4.70;2.43;;;26.70;99.90;;;;;;4976627;28;20470;-60
2023/08/13 10:19:57;;;;;;;4.93;2.80;;;26.70;99.90;;;;;;4976979;28;20497;-59
2023/08/13 10:22:31;;;;;;;6.70;3.40;;;26.50;1.00;;;;;;4977328;28;20597;-59
2023/08/13 10:24:59;;;;;;;3.97;2.87;;;26.30;1.00;;;;;;4977747;28;20794;-59
2023/08/13 10:27:28;;;;;;;4.17;3.33;;;26.00;1.00;;;;;;4968260;28;20474;-59
2023/08/13 10:30:08;;;;;;;5.87;2.80;;;25.60;1.00;;;;;;4958963;28;20858;-61
2023/08/13 10:32:39;;;;;;;8.47;3.57;;;25.30;1.00;;;;;;4958081;28;20985;-59
2023/08/13 10:35:22;;;;;;;7.27;3.03;;;25.30;1.00;;;;;;4959244;29;20466;-59
2023/08/13 10:37:54;;;;;;;5.97;3.07;;;25.70;1.00;;;;;;4967010;28;20789;-59
2023/08/13 10:40:22;;;;;;;7.30;3.23;;;26.20;1.00;;;;;;4977165;28;20469;-58
2023/08/13 10:42:53;;;;;;;3.90;3.50;;;26.50;1.00;;;;;;4978435;28;20497;-58
2023/08/13 10:45:22;;;;;;;4.53;3.57;;;26.80;1.00;;;;;;4973558;28;20478;-58
2023/08/13 10:47:52;;;;;;;5.30;3.33;;;27.20;4.00;;;;;;4974160;28;20473;-58
2023/08/13 10:50:28;;;;;;;7.30;3.70;;;27.30;1.00;;;;;;4959628;28;20509;-59
2023/08/13 10:53:02;;;;;;;5.67;3.50;;;27.20;1.00;;;;;;4959834;28;20490;-59
2023/08/13 10:55:32;;;;;;;6.50;3.60;;;27.30;1.00;;;;;;4960607;29;20494;-58
2023/08/13 10:58:02;;;;;;;8.83;3.73;;;26.90;1.00;;;;;;4960165;28;20943;-59
2023/08/13 11:00:29;;;;;;;5.57;3.13;;;26.30;1.00;;;;;;4976544;28;20911;-58
2023/08/13 11:03:00;;;;;;;5.10;3.10;;;26.00;1.00;;;;;;4971693;28;20502;-58
2023/08/13 11:05:28;;;;;;;4.17;3.77;;;25.80;1.00;;;;;;4959226;28;20908;-59
2023/08/13 11:07:56;;;;;;;4.57;3.40;;;25.80;1.00;;;;;;4959336;29;20474;-58
2023/08/13 11:10:23;;;;;;;6.40;3.63;;;26.00;1.00;;;;;;4970170;28;20585;-58
2023/08/13 11:12:51;;;;;;;6.27;3.60;;;26.00;1.00;;;;;;4978824;28;20462;-58
2023/08/13 11:15:20;;;;;;;6.33;4.10;;;26.10;1.00;;;;;;4962614;28;21038;-58
2023/08/13 11:17:50;;;;;;;4.67;3.50;;;26.20;1.00;;;;;;4960145;28;20462;-59
2023/08/13 11:20:19;;;;;;;5.33;3.70;;;26.20;1.00;;;;;;4965452;28;20466;-58
2023/08/13 11:22:47;;;;;;;5.00;3.50;;;26.50;1.00;;;;;;4978476;28;20469;-58
2023/08/13 11:25:15;;;;;;;4.80;3.57;;;26.60;1.00;;;;;;4978951;28;20461;-58
2023/08/13 11:27:45;;;;;;;6.40;3.60;;;26.70;1.00;;;;;;4979058;28;20472;-58
2023/08/13 11:30:14;;;;;;;5.10;3.23;;;26.50;1.00;;;;;;4974351;28;20502;-57
2023/08/13 11:32:42;;;;;;;5.87;3.47;;;26.00;1.00;;;;;;4959506;28;20490;-59
2023/08/13 11:35:10;;;;;;;4.60;3.20;;;25.70;1.00;;;;;;4959202;28;20502;-59
2023/08/13 11:37:38;;;;;;;6.97;4.50;;;25.60;1.00;;;;;;4959852;29;20491;-58
2023/08/13 11:40:10;;;;;;;5.63;3.40;;;25.60;1.00;;;;;;4958940;28;20518;-59
2023/08/13 11:42:51;;;;;;;7.77;4.10;;;25.60;1.00;;;;;;4976636;28;20477;-58
2023/08/13 11:45:18;;;;;;;4.90;3.30;;;25.60;1.00;;;;;;4978076;28;20501;-58
2023/08/13 11:47:47;;;;;;;6.50;3.67;;;25.80;1.00;;;;;;4978516;28;20887;-59
2023/08/13 11:50:20;;;;;;;4.30;3.10;;;26.00;1.00;;;;;;4978091;28;20781;-58
2023/08/13 11:53:04;;;;;;;6.27;3.50;;;26.10;1.00;;;;;;4962389;28;20981;-58
2023/08/13 11:55:33;;;;;;;5.90;3.10;;;26.10;1.00;;;;;;4958611;28;20467;-58
2023/08/13 11:58:01;;;;;;;6.70;3.70;;;26.10;1.00;;;;;;4958924;28;20459;-57
2023/08/13 12:00:28;;;;;;;3.83;3.47;;;26.10;1.00;;;;;;4958868;29;20466;-61
2023/08/13 12:02:59;;;;;;;5.60;3.23;;;26.20;1.00;;;;;;4970385;28;20516;-58
2023/08/13 12:05:27;;;;;;;4.53;3.40;;;26.30;1.00;;;;;;4977781;28;20473;-58
2023/08/13 12:07:56;;;;;;;3.93;3.23;;;26.40;1.00;;;;;;4978152;28;20461;-58
2023/08/13 12:10:24;;;;;;;3.70;3.03;;;26.50;1.00;;;;;;4977512;28;20489;-59
2023/08/13 12:12:51;;;;;;;4.00;3.00;;;26.30;1.00;;;;;;4969631;28;20543;-58
2023/08/13 12:15:23;;;;;;;6.20;3.90;;;26.10;1.00;;;;;;4958639;28;20459;-58
2023/08/13 12:17:51;;;;;;;4.13;3.07;;;26.20;1.00;;;;;;4961885;28;20470;-59
2023/08/13 12:20:20;;;;;;;4.23;3.57;;;26.20;1.00;;;;;;4961887;28;20474;-58
2023/08/13 12:22:47;;;;;;;6.97;3.37;;;26.30;1.00;;;;;;4968744;28;20899;-59
2023/08/13 12:25:15;;;;;;;5.70;3.80;;;26.40;1.00;;;;;;4973821;28;20943;-59
2023/08/13 12:27:43;;;;;;;6.30;3.40;;;26.20;1.00;;;;;;4974657;28;20469;-59
2023/08/13 12:30:13;;;;;;;5.87;3.50;;;26.20;1.00;;;;;;4957721;29;20592;-58
2023/08/13 12:32:41;;;;;;;6.67;3.83;;;26.10;1.00;;;;;;4963348;28;20777;-58
2023/08/13 12:35:09;;;;;;;6.17;3.37;;;26.00;1.00;;;;;;4974975;28;20540;-59
2023/08/13 12:37:38;;;;;;;5.30;3.40;;;25.60;1.00;;;;;;4975513;28;20473;-59
2023/08/13 12:40:09;;;;;;;6.20;3.80;;;25.50;1.00;;;;;;4977166;28;20664;-57
2023/08/13 12:42:39;;;;;;;6.93;3.60;;;25.50;1.00;;;;;;4976165;28;20871;-60
2023/08/13 12:45:08;;;;;;;7.00;3.90;;;25.40;1.00;;;;;;4974650;28;20466;-58
2023/08/13 12:47:35;;;;;;;6.23;3.83;;;25.30;1.00;;;;;;4976109;28;20466;-59
2023/08/13 12:50:03;;;;;;;6.73;3.43;;;25.30;1.00;;;;;;4974451;28;20489;-59
2023/08/13 12:52:31;;;;;;;4.40;3.87;;;25.50;1.00;;;;;;4974042;28;20497;-59